Latest Weather Observations for Ayr

IDQ60801

Issued at 6:32 pm EST Saturday 23 May 2015 (issued every 30 minutes, with the page automatically refreshed every 10 minutes)

About weather observations | Map of weather stations | Latest weather observations for QLD | Other Formats
Station Details ID: 033002 Name: AYR DPI RESEARCH STN Lat: -19.62 Lon: 147.38 Height: 17.0 m
Data from the previous 72 hours. | See also: Recent months at Ayr
Date/Time
EST
Temp
°C
App
Temp
°C
Dew
Point
Rel
Hum
%
Delta-T
°C
Wind Press
QNH
hPa
Press
MSL
hPa
Rain
since 9 am
mm
Dir
 
Spd
km/h
Gust
km/h
Spd
kts
Gust
kts
23/06:30pm 17.4 17.0 11.2 67 3.4 NE 4 7 2 4 - - 0.0
23/06:00pm 18.6 17.8 10.9 61 4.2 ENE 6 9 3 5 - - 0.0
23/05:30pm 20.3 18.1 10.7 54 5.2 E 13 20 7 11 - - 0.0
23/05:00pm 21.5 18.9 10.6 50 6.0 ENE 15 22 8 12 - - 0.0
23/04:30pm 22.7 20.1 9.5 43 7.1 ENE 13 20 7 11 - - 0.0
23/04:00pm 23.2 19.9 8.1 38 8.0 ENE 15 22 8 12 - - 0.0
23/03:30pm 24.2 20.1 4.6 28 9.8 ENE 15 22 8 12 - - 0.0
23/03:00pm 24.5 20.7 3.8 26 10.2 ENE 13 20 7 11 - - 0.0
23/02:30pm 24.7 21.3 3.9 26 10.3 E 11 20 6 11 - - 0.0
23/02:00pm 24.3 20.7 3.0 25 10.3 E 11 22 6 12 - - 0.0
23/01:30pm 24.4 20.3 2.5 24 10.5 SSE 13 20 7 11 - - 0.0
23/01:00pm 23.8 20.1 2.6 25 10.1 S 11 19 6 10 - - 0.0
23/12:30pm 23.6 18.6 3.5 27 9.8 S 19 24 10 13 - - 0.0
23/12:00pm 23.1 19.5 3.1 27 9.6 SE 11 19 6 10 - - 0.0
23/11:30am 22.2 18.7 3.3 29 9.1 S 11 17 6 9 - - 0.0
23/11:00am 21.5 17.6 3.2 30 8.7 SSE 13 19 7 10 - - 0.0
23/10:30am 20.7 16.5 3.9 33 8.1 S 15 20 8 11 - - 0.0
23/10:00am 19.8 15.6 3.9 35 7.6 S 15 20 8 11 - - 0.0
23/09:30am 18.8 13.8 3.8 37 7.1 S 19 26 10 14 - - 0.0
23/09:00am 18.1 13.0 4.3 40 6.5 S 20 30 11 16 - - 0.0
23/08:30am 16.8 12.7 4.2 43 5.9 S 15 22 8 12 - - 0.0
23/08:00am 15.4 12.1 4.8 49 5.0 SSW 11 17 6 9 - - 0.0
23/07:30am 12.7 9.9 5.1 60 3.5 SSW 9 13 5 7 - - 0.0
23/07:00am 11.5 8.2 4.5 62 3.2 SSW 11 15 6 8 - - 0.0
23/06:30am 12.1 8.7 4.1 58 3.6 SSW 11 15 6 8 - - 0.0
23/06:00am 12.5 8.7 4.0 56 3.8 SSW 13 15 7 8 - - 0.0
23/05:30am 12.5 9.2 4.7 59 3.6 SSW 11 13 6 7 - - 0.0
23/05:00am 13.3 10.0 4.7 56 4.0 SSW 11 15 6 8 - - 0.0
23/04:30am 13.1 10.0 5.5 60 3.6 SSW 11 15 6 8 - - 0.0
23/04:00am 13.0 10.9 6.6 65 3.1 S 7 9 4 5 - - 0.0
23/03:30am 12.9 10.9 6.9 67 2.9 S 7 11 4 6 - - 0.0
23/03:00am 13.4 12.4 7.2 66 3.0 SW 2 6 1 3 - - 0.0
23/02:30am 14.1 12.2 7.4 64 3.3 SSW 7 9 4 5 - - 0.0
23/02:00am 13.3 10.6 5.7 60 3.6 SSW 9 9 5 5 - - 0.0
23/01:30am 15.4 13.0 1.9 40 6.0 SE 4 7 2 4 - - 0.0
23/01:00am 17.5 13.8 0.2 31 7.5 S 9 15 5 8 - - 0.0
23/12:30am 18.7 13.9 0.3 29 8.1 S 15 19 8 10 - - 0.0
23/12:00am 19.1 14.4 0.7 29 8.2 S 15 19 8 10 - - 0.0
 
Date/Time
EST
Temp
°C
App
Temp
°C
Dew
Point
Rel
Hum
%
Delta-T
°C
Wind Press
QNH
hPa
Press
MSL
hPa
Rain
since 9 am
mm
Dir
 
Spd
km/h
Gust
km/h
Spd
kts
Gust
kts
22/11:30pm 18.9 14.7 1.4 31 7.9 S 13 20 7 11 - - 0.0
22/11:00pm 18.8 15.0 1.8 32 7.7 S 11 17 6 9 - - 0.0
22/10:30pm 19.3 15.6 2.6 33 7.7 S 11 17 6 9 - - 0.0
22/10:00pm 19.1 15.8 4.5 38 7.0 S 11 15 6 8 - - 0.0
22/09:30pm 19.6 16.0 4.9 38 7.1 SSW 13 17 7 9 - - 0.0
22/09:00pm 20.3 16.9 5.9 39 7.2 SSW 13 19 7 10 - - 0.0
22/08:30pm 20.6 17.6 7.9 44 6.6 SSW 13 19 7 10 - - 0.0
22/08:00pm 20.6 18.4 9.2 48 6.0 SSW 11 13 6 7 - - 0.0
22/07:30pm 21.4 18.9 9.6 47 6.3 SSW 13 15 7 8 - - 0.0
22/07:00pm 22.0 19.9 9.9 46 6.6 SSW 11 15 6 8 - - 0.0
22/06:30pm 22.7 21.1 10.2 45 6.8 SSW 9 13 5 7 - - 0.0
22/06:00pm 23.9 21.5 9.9 41 7.7 SSW 13 17 7 9 - - 0.0
22/05:30pm 25.4 22.9 9.7 37 8.6 SSW 13 17 7 9 - - 0.0
22/05:00pm 26.8 24.1 10.5 36 9.2 SSW 15 19 8 10 - - 0.0
22/04:30pm 27.0 24.3 10.2 35 9.4 SSW 15 19 8 10 - - 0.0
22/04:00pm 28.3 25.3 10.5 33 10.1 SSW 17 22 9 12 - - 0.0
22/03:30pm 28.5 25.4 10.2 32 10.3 S 17 24 9 13 - - 0.0
22/03:00pm 28.2 24.5 9.5 31 10.4 S 19 26 10 14 - - 0.0
22/02:30pm 28.4 24.1 9.2 30 10.6 S 22 30 12 16 - - 0.0
22/02:00pm 29.1 25.9 9.8 30 10.8 SSW 17 24 9 13 - - 0.0
22/01:30pm 28.3 24.3 9.1 30 10.6 SW 20 32 11 17 - - 0.0
22/01:00pm 28.0 24.3 9.3 31 10.4 SSW 19 30 10 16 - - 0.0
22/12:30pm 27.5 23.1 8.9 31 10.2 SSW 22 30 12 16 - - 0.0
22/12:00pm 27.3 23.4 9.6 33 9.8 SSW 20 28 11 15 - - 0.0
22/11:30am 27.0 23.2 9.8 34 9.6 SSW 20 30 11 16 - - 0.0
22/11:00am 26.2 22.2 10.4 37 8.8 SSW 22 33 12 18 - - 0.0
22/10:30am 25.3 21.2 10.0 38 8.5 SSW 22 32 12 17 - - 0.0
22/10:00am 24.5 20.5 10.4 41 7.8 SSW 22 30 12 16 - - 0.0
22/09:30am 23.5 19.0 10.2 43 7.3 SSW 24 35 13 19 - - 0.0
22/09:00am 23.0 19.3 11.4 48 6.5 SSW 22 35 12 19 - - 0.0
22/08:30am 22.2 18.6 11.9 52 5.8 SSW 22 32 12 17 - - 0.0
22/08:00am 20.8 19.0 13.3 62 4.3 SW 15 24 8 13 - - 0.0
22/07:30am 19.5 18.6 13.7 69 3.3 SW 11 17 6 9 - - 0.0
22/07:00am 18.5 17.5 13.4 72 2.9 SW 11 15 6 8 - - 0.0
22/06:30am 18.5 17.6 13.8 74 2.7 SSW 11 15 6 8 - - 0.0
22/06:00am 18.7 18.3 14.2 75 2.6 SSW 9 11 5 6 - - 0.0
22/05:30am 19.5 18.8 14.3 72 3.0 SSW 11 15 6 8 - - 0.0
22/05:00am 20.2 19.5 15.4 74 2.8 SSW 13 19 7 10 - - 0.0
22/04:30am 21.0 20.8 16.8 77 2.6 SSW 13 19 7 10 - - 0.0
22/04:00am 21.0 23.0 19.1 89 1.2 SSW 7 11 4 6 - - 0.0
22/03:30am 20.8 22.9 18.9 89 1.2 SSW 6 7 3 4 - - 0.0
22/03:00am 20.9 22.4 19.0 89 1.2 SSW 9 11 5 6 - - 0.0
22/02:30am 20.7 23.8 18.6 88 1.3 CALM 0 7 0 4 - - 0.0
22/02:00am 20.9 24.1 18.8 88 1.3 CALM 0 0 0 0 - - 0.0
22/01:30am 20.8 22.6 18.7 88 1.3 WSW 7 9 4 5 - - 0.0
22/01:00am 21.1 23.0 19.0 88 1.3 SSW 7 9 4 5 - - 0.0
22/12:30am 21.3 22.7 19.6 90 1.1 SSW 11 17 6 9 - - 0.0
22/12:00am 20.4 22.2 18.3 88 1.3 W 6 7 3 4 - - 0.0
 
Date/Time
EST
Temp
°C
App
Temp
°C
Dew
Point
Rel
Hum
%
Delta-T
°C
Wind Press
QNH
hPa
Press
MSL
hPa
Rain
since 9 am
mm
Dir
 
Spd
km/h
Gust
km/h
Spd
kts
Gust
kts
21/11:30pm 20.4 23.3 18.2 87 1.4 CALM 0 0 0 0 - - 0.0
21/11:00pm 20.5 23.5 18.4 88 1.3 CALM 0 0 0 0 - - 0.0
21/10:30pm 20.7 23.6 18.3 86 1.5 CALM 0 0 0 0 - - 0.0
21/10:00pm 20.5 23.4 18.1 86 1.5 CALM 0 0 0 0 - - 0.0
21/09:30pm 20.7 23.6 18.1 85 1.6 CALM 0 0 0 0 - - 0.0
21/09:00pm 20.9 23.8 18.1 84 1.7 CALM 0 0 0 0 - - 0.0
21/08:30pm 21.6 24.7 18.6 83 1.9 CALM 0 0 0 0 - - 0.0
21/08:00pm 22.2 25.5 19.0 82 2.0 CALM 0 6 0 3 - - 0.0
21/07:30pm 22.6 25.2 19.2 81 2.2 NNE 4 7 2 4 - - 0.0
21/07:00pm 23.1 25.5 19.7 81 2.2 N 6 9 3 5 - - 0.0
21/06:30pm 23.2 25.7 19.1 78 2.6 NNE 4 7 2 4 - - 0.0
21/06:00pm 24.0 26.0 19.1 74 3.1 NNE 7 11 4 6 - - 0.0
21/05:30pm 25.0 26.6 19.1 70 3.8 NNE 9 13 5 7 - - 0.0
21/05:00pm 26.1 27.5 19.5 67 4.3 NE 11 17 6 9 - - 0.0
21/04:30pm 26.8 27.2 18.9 62 5.1 NE 15 20 8 11 - - 0.0
21/04:00pm 27.7 28.3 18.7 58 5.8 NE 13 19 7 10 - - 0.0
21/03:30pm 27.8 28.7 18.5 57 5.9 NE 11 19 6 10 - - 0.0
21/03:00pm 28.5 29.2 19.7 59 5.7 NNE 15 22 8 12 - - 0.0
21/02:30pm 27.2 28.3 18.8 60 5.4 NE 11 19 6 10 - - 0.0
21/02:00pm 28.3 29.1 19.0 57 6.0 NE 13 20 7 11 - - 0.0
21/01:30pm 28.7 29.8 19.6 58 5.9 NE 13 19 7 10 - - 0.0
21/01:00pm 28.6 29.5 20.1 60 5.6 E 15 20 8 11 - - 0.0
21/12:30pm 28.0 29.2 20.6 64 4.9 E 15 26 8 14 - - 0.0
21/12:00pm 27.2 26.8 19.0 61 5.3 E 19 26 10 14 - - 0.0
21/11:30am 28.1 29.3 19.9 61 5.4 SSE 13 19 7 10 - - 0.0
21/11:00am 29.2 31.8 20.1 58 6.0 NE 6 13 3 7 - - 0.0
21/10:30am 28.2 30.4 19.1 57 5.9 NE 6 11 3 6 - - 0.0
21/10:00am 26.6 28.8 19.7 66 4.5 NE 7 11 4 6 - - 0.0
21/09:30am 26.0 29.3 19.9 69 4.0 NE 2 7 1 4 - - 0.0
21/09:00am 24.8 28.8 20.5 77 2.8 CALM 0 7 0 4 - - 3.0
21/08:30am 23.7 26.4 20.2 81 2.3 ESE 6 7 3 4 - - 3.0
21/08:00am 23.4 27.4 20.5 84 1.9 CALM 0 0 0 0 - - 3.0
21/07:30am 22.4 25.1 20.3 88 1.4 SE 6 9 3 5 - - 3.0
21/07:00am 21.6 23.8 19.5 88 1.3 SE 7 9 4 5 - - 3.0
21/06:30am 21.6 23.8 19.7 89 1.2 ESE 7 9 4 5 - - 3.0
21/06:00am 21.8 23.8 19.9 89 1.2 ESE 9 13 5 7 - - 3.0
21/05:30am 22.0 24.2 20.3 90 1.1 ESE 9 13 5 7 - - 3.0
21/05:00am 21.9 23.9 20.0 89 1.2 ESE 9 13 5 7 - - 1.0
21/04:30am 21.4 23.9 19.1 87 1.5 S 4 7 2 4 - - 0.0
21/04:00am 21.0 24.1 18.6 86 1.5 CALM 0 0 0 0 - - 0.0
21/03:30am 21.1 24.0 18.3 84 1.7 CALM 0 0 0 0 - - 0.0
21/03:00am 21.6 24.7 18.6 83 1.9 CALM 0 0 0 0 - - 0.0
21/02:30am 21.7 24.7 18.5 82 2.0 CALM 0 0 0 0 - - 0.0
21/02:00am 22.0 25.3 19.0 83 1.9 CALM 0 0 0 0 - - 0.0
21/01:30am 22.0 25.1 18.6 81 2.1 CALM 0 0 0 0 - - 0.0
21/01:00am 22.8 26.2 19.4 81 2.2 CALM 0 0 0 0 - - 0.0
21/12:30am 23.3 26.6 19.9 81 2.2 E 2 7 1 4 - - 0.0
21/12:00am 23.3 25.9 20.1 82 2.1 E 6 9 3 5 - - 0.0
 
Date/Time
EST
Temp
°C
App
Temp
°C
Dew
Point
Rel
Hum
%
Delta-T
°C
Wind Press
QNH
hPa
Press
MSL
hPa
Rain
since 9 am
mm
Dir
 
Spd
km/h
Gust
km/h
Spd
kts
Gust
kts
20/11:30pm 22.9 25.3 19.7 82 2.1 E 6 7 3 4 - - 0.0
20/11:00pm 23.1 25.3 19.7 81 2.2 ENE 7 11 4 6 - - 0.0
20/10:30pm 23.5 25.7 19.6 79 2.5 ENE 7 13 4 7 - - 0.0
20/10:00pm 23.7 25.6 19.8 79 2.5 ENE 9 11 5 6 - - 0.0
20/09:30pm 23.6 26.2 20.1 81 2.3 ENE 6 13 3 7 - - 0.0
20/09:00pm 23.7 26.0 19.8 79 2.5 ENE 7 9 4 5 - - 0.0
20/08:30pm 23.5 25.6 19.4 78 2.6 ENE 7 9 4 5 - - 0.0
20/08:00pm 23.9 26.2 19.4 76 2.9 ENE 6 7 3 4 - - 0.0
20/07:30pm 24.0 26.4 19.7 77 2.8 ENE 6 9 3 5 - - 0.0
20/07:00pm 24.1 26.3 19.6 76 2.9 ENE 7 9 4 5 - - 0.0

Other Formats:

Comma delimited format used in spreadsheet applications
http://www.bom.gov.au/fwo/IDQ60801/IDQ60801.95295.axf

JavaScript Object Notation format (JSON) in row-major order
http://www.bom.gov.au/fwo/IDQ60801/IDQ60801.95295.json